Euskara    
Meteorología y climatología de Navarra
Datos de la estación - Meteo Navarra

Estación de Sartaguda GN

Altitud 310 m.


Datos desde el 08/04/2021 hasta el 09/04/2021 en horario solar
Los datos son PROVISIONALES

Anterior Página 1 de 1 Siguiente Descargar: Formato para Excel 2000 o superior   Formato csv   Formato para OpenOffice Calc
Fecha Temperatura Humedad relativa Radiación global Insolación Precipitación Vel. viento 10 m Vel. viento 10 m Dir. viento 10 m
°C % W/m² s l/m² m/s km/h °
08/04/2021 0:00 1.6 73 0.0 0 0.0 1.1 3.8 161
08/04/2021 0:10 1.4 74 0.0 0 0.0 1.0 3.6 149
08/04/2021 0:20 1.0 75 0.0 0 0.0 1.2 4.2 153
08/04/2021 0:30 1.1 75 0.0 0 0.0 2.0 7.0 143
08/04/2021 0:40 1.4 73 0.0 0 0.0 1.2 4.4 141
08/04/2021 0:50 1.7 72 0.0 0 0.0 1.5 5.3 145
08/04/2021 1:00 1.9 71 0.0 0 0.0 1.1 4.0 161
08/04/2021 1:10 1.9 69 0.0 0 0.0 1.2 4.1 125
08/04/2021 1:20 1.7 72 0.0 0 0.0 1.4 5.2 124
08/04/2021 1:30 1.7 72 0.0 0 0.0 1.9 6.7 108
08/04/2021 1:40 1.9 72 0.0 0 0.0 2.0 7.2 101
08/04/2021 1:50 2.1 71 0.0 0 0.0 2.0 7.3 112
08/04/2021 2:00 2.1 72 0.0 0 0.0 2.3 8.4 112
08/04/2021 2:10 2.3 73 0.0 0 0.0 2.6 9.3 121
08/04/2021 2:20 2.5 73 0.0 0 0.0 2.5 9.1 126
08/04/2021 2:30 2.4 75 0.0 0 0.0 2.3 8.2 124
08/04/2021 2:40 2.4 77 0.0 0 0.0 2.0 7.3 125
08/04/2021 2:50 2.4 78 0.0 0 0.0 2.0 7.3 124
08/04/2021 3:00 2.2 79 0.0 0 0.0 2.1 7.6 133
08/04/2021 3:10 2.2 79 0.0 0 0.0 2.1 7.5 131
08/04/2021 3:20 2.1 80 0.0 0 0.0 2.1 7.6 138
08/04/2021 3:30 2.2 81 0.0 0 0.0 2.5 8.9 141
08/04/2021 3:40 2.1 82 0.0 0 0.0 2.4 8.5 128
08/04/2021 3:50 2.5 82 0.0 0 0.0 2.3 8.4 117
08/04/2021 4:00 2.9 81 0.0 0 0.0 3.0 10.7 117
08/04/2021 4:10 2.9 81 0.0 0 0.0 2.9 10.6 121
08/04/2021 4:20 2.9 82 0.0 0 0.0 2.8 9.9 117
08/04/2021 4:30 3.2 81 0.0 0 0.0 3.3 11.7 113
08/04/2021 4:40 3.4 81 0.0 0 0.0 3.0 10.8 113
08/04/2021 4:50 3.7 81 0.0 0 0.0 3.3 11.7 111
08/04/2021 5:00 3.9 81 0.0 0 0.0 3.0 10.8 112
08/04/2021 5:10 4.1 81 0.0 0 0.0 3.1 11.1 116
08/04/2021 5:20 4.5 81 0.0 0 0.0 2.5 8.9 118
08/04/2021 5:30 4.8 81 0.0 0 0.0 3.2 11.6 124
08/04/2021 5:40 5.2 81 0.0 0 0.0 3.2 11.4 125
08/04/2021 5:50 5.5 81 0.0 0 0.0 3.0 10.8 126
08/04/2021 6:00 5.6 81 0.6 0 0.0 3.3 11.7 123
08/04/2021 6:10 5.7 81 18.3 0 0.0 3.3 11.7 122
08/04/2021 6:20 5.8 81 25.5 0 0.0 3.5 12.7 124
08/04/2021 6:30 5.9 81 35.2 0 0.0 3.4 12.1 124
08/04/2021 6:40 6.1 81 46.6 0 0.0 3.3 11.9 124
08/04/2021 6:50 6.3 81 63.0 0 0.0 3.6 13.0 123
08/04/2021 7:00 6.6 80 95.6 0 0.0 3.8 13.6 120
08/04/2021 7:10 6.8 80 129.6 124 0.0 4.1 14.7 124
08/04/2021 7:20 7.1 79 157.0 264 0.0 4.2 15.2 122
08/04/2021 7:30 7.4 78 241.4 600 0.0 4.3 15.5 125
08/04/2021 7:40 8.0 76 380.3 600 0.0 4.4 15.9 124
08/04/2021 7:50 8.6 74 407.3 600 0.0 4.2 15.1 116
08/04/2021 8:00 8.6 74 331.1 600 0.0 4.6 16.6 121
08/04/2021 8:10 8.9 73 424.7 600 0.0 4.8 17.4 123
08/04/2021 8:20 9.3 71 523.1 600 0.0 5.6 20.1 124
08/04/2021 8:30 9.4 71 454.5 600 0.0 6.2 22.3 124
08/04/2021 8:40 9.2 71 404.8 472 0.0 6.4 23.1 129
08/04/2021 8:50 9.6 71 553.4 564 0.0 5.8 21.0 126
08/04/2021 9:00 10.1 69 594.1 600 0.0 6.6 23.8 121
08/04/2021 9:10 10.2 68 605.0 588 0.0 6.6 23.8 121
08/04/2021 9:20 10.3 67 630.8 600 0.0 7.5 27.0 124
08/04/2021 9:30 10.5 67 658.7 600 0.0 6.5 23.3 122
08/04/2021 9:40 10.8 66 636.0 600 0.0 6.7 24.2 117
08/04/2021 9:50 11.2 66 664.6 600 0.0 5.8 20.9 123
08/04/2021 10:00 11.5 65 720.3 600 0.0 5.4 19.5 116
08/04/2021 10:10 12.1 63 671.2 600 0.0 5.3 18.9 116
08/04/2021 10:20 12.1 63 623.3 600 0.0 5.7 20.4 116
08/04/2021 10:30 12.5 62 774.9 600 0.0 5.8 20.8 113
08/04/2021 10:40 13.0 60 801.0 600 0.0 5.3 19.1 112
08/04/2021 10:50 13.6 59 820.0 600 0.0 6.0 21.5 122
08/04/2021 11:00 13.6 58 762.3 600 0.0 5.9 21.4 125
08/04/2021 11:10 13.7 58 698.5 600 0.0 5.6 20.0 114
08/04/2021 11:20 14.0 58 729.6 600 0.0 4.9 17.5 117
08/04/2021 11:30 14.5 57 680.9 600 0.0 4.5 16.3 119
08/04/2021 11:40 14.4 55 742.6 600 0.0 5.5 19.8 112
08/04/2021 11:50 14.7 56 756.9 600 0.0 5.3 19.0 122
08/04/2021 12:00 15.0 56 833.0 600 0.0 5.4 19.5 125
08/04/2021 12:10 15.6 54 836.0 600 0.0 5.1 18.4 119
08/04/2021 12:20 16.0 53 880.0 600 0.0 4.6 16.5 114
08/04/2021 12:30 16.1 52 850.0 600 0.0 5.1 18.2 109
08/04/2021 12:40 16.0 52 778.4 600 0.0 5.0 17.9 110
08/04/2021 12:50 16.4 52 871.0 600 0.0 4.9 17.7 122
08/04/2021 13:00 16.3 52 694.0 600 0.0 4.7 17.0 107
08/04/2021 13:10 16.6 51 713.8 600 0.0 4.7 16.8 117
08/04/2021 13:20 17.0 51 816.0 600 0.0 4.2 15.1 116
08/04/2021 13:30 17.2 50 828.0 600 0.0 4.8 17.2 111
08/04/2021 13:40 17.8 48 865.0 600 0.0 4.1 14.9 103
08/04/2021 13:50 17.8 48 790.4 600 0.0 4.6 16.5 113
08/04/2021 14:00 17.9 48 790.1 600 0.0 3.7 13.5 112
08/04/2021 14:10 18.0 47 692.7 600 0.0 4.3 15.5 114
08/04/2021 14:20 17.8 47 603.3 600 0.0 3.9 13.9 110
08/04/2021 14:30 18.0 48 563.2 600 0.0 3.6 12.8 124
08/04/2021 14:40 18.0 47 562.0 600 0.0 4.4 16.0 134
08/04/2021 14:50 18.0 47 474.2 600 0.0 3.9 13.9 128
08/04/2021 15:00 18.1 46 594.4 600 0.0 3.8 13.6 107
08/04/2021 15:10 18.2 47 463.5 600 0.0 3.4 12.3 123
08/04/2021 15:20 18.4 48 579.4 600 0.0 3.9 14.0 130
08/04/2021 15:30 18.8 46 464.5 484 0.0 4.0 14.4 122
08/04/2021 15:40 18.5 46 524.3 540 0.0 3.4 12.2 117
08/04/2021 15:50 18.8 47 342.6 362 0.0 3.6 12.9 127
08/04/2021 16:00 18.1 48 195.2 54 0.0 4.0 14.4 142
08/04/2021 16:10 17.5 49 144.2 0 0.0 4.4 15.7 135
08/04/2021 16:20 17.3 49 127.5 0 0.0 4.4 15.9 137
08/04/2021 16:30 17.3 49 90.0 0 0.0 4.2 15.0 131
08/04/2021 16:40 17.3 49 59.4 0 0.0 3.8 13.7 126
08/04/2021 16:50 17.1 50 42.1 0 0.0 3.6 12.9 150
08/04/2021 17:00 16.8 52 25.9 0 0.0 4.4 15.8 158
08/04/2021 17:10 16.1 58 19.6 0 0.0 3.2 11.6 162
08/04/2021 17:20 15.2 67 13.0 0 0.2 3.2 11.6 161
08/04/2021 17:30 14.7 71 10.8 0 0.1 1.8 6.6 186
08/04/2021 17:40 14.5 76 0.0 0 0.2 1.5 5.3 193
08/04/2021 17:50 14.3 74 3.0 0 0.0 1.8 6.5 252
08/04/2021 18:00 14.2 75 16.0 0 0.0 2.3 8.2 304
08/04/2021 18:10 14.0 78 17.8 0 0.0 1.3 4.8 313
08/04/2021 18:20 13.9 78 18.4 0 0.0 1.4 5.1 3
08/04/2021 18:30 13.8 79 4.4 0 0.0 0.5 1.9 72
08/04/2021 18:40 13.0 84 0.0 0 0.0 1.3 4.8 114
08/04/2021 18:50 13.1 82 0.0 0 0.0 0.8 2.8 75
08/04/2021 19:00 13.0 84 0.0 0 0.0 0.5 1.8 164
08/04/2021 19:10 12.6 86 0.0 0 0.0 1.4 5.0 191
08/04/2021 19:20 12.5 86 0.0 0 0.0 1.2 4.4 177
08/04/2021 19:30 12.4 85 0.0 0 0.0 1.1 3.8 165
08/04/2021 19:40 12.1 83 0.0 0 0.0 1.1 4.0 167
08/04/2021 19:50 11.9 84 0.0 0 0.0 1.6 5.6 134
08/04/2021 20:00 11.5 82 0.0 0 0.0 2.8 9.9 165
08/04/2021 20:10 11.8 77 0.0 0 0.0 2.7 9.8 169
08/04/2021 20:20 11.9 75 0.0 0 0.0 2.8 10.0 159
08/04/2021 20:30 11.2 76 0.0 0 0.0 1.9 6.9 154
08/04/2021 20:40 11.1 77 0.0 0 0.0 1.4 4.9 136
08/04/2021 20:50 10.8 78 0.0 0 0.0 1.2 4.4 126
08/04/2021 21:00 10.5 78 0.0 0 0.0 1.2 4.2 153
08/04/2021 21:10 10.2 79 0.0 0 0.0 1.4 5.0 171
08/04/2021 21:20 10.1 79 0.0 0 0.0 1.7 6.0 160
08/04/2021 21:30 10.1 79 0.0 0 0.0 1.2 4.5 99
08/04/2021 21:40 10.1 82 0.0 0 0.0 2.0 7.3 332
08/04/2021 21:50 10.7 78 0.0 0 0.0 2.0 7.1 52
08/04/2021 22:00 11.6 74 0.0 0 0.0 2.2 7.7 114
08/04/2021 22:10 11.8 74 0.0 0 0.0 2.5 9.1 94
08/04/2021 22:20 11.7 73 0.0 0 0.0 2.8 10.1 98
08/04/2021 22:30 11.8 72 0.0 0 0.0 3.6 12.9 110
08/04/2021 22:40 12.0 71 0.0 0 0.0 4.7 17.1 114
08/04/2021 22:50 12.1 70 0.0 0 0.0 5.4 19.6 118
08/04/2021 23:00 12.0 70 0.0 0 0.0 4.5 16.1 112
08/04/2021 23:10 11.7 72 0.0 0 0.0 4.1 14.8 111
08/04/2021 23:20 11.5 73 0.0 0 0.0 3.3 11.7 124
08/04/2021 23:30 11.2 75 0.0 0 0.0 3.6 13.0 132
08/04/2021 23:40 11.1 75 0.0 0 0.0 4.1 14.6 135
08/04/2021 23:50 11.1 74 0.0 0 0.0 4.2 15.1 129
Anterior Página 1 de 1 Siguiente

NOTA: Tipo de datos según el color:
   - Valores diarios o 10 minutos correctos
   - Valores diarios calculados a partir de un número de datos 10 minutos menor que 144 y mayor que 120, o de un número de datos semihorarios menor que 48 y mayor que 40 (caso de las estaciones de INTIA Y Ministerio)
   - Valores diez minutos estimados


Contacto        Enlaces        Aviso legal